EDT,Max TemperatureF,Mean TemperatureF,Min TemperatureF,Max Dew PointF,MeanDew PointF,Min DewpointF,Max Humidity, Mean Humidity, Min Humidity, Max Sea Level PressureIn, Mean Sea Level PressureIn, Min Sea Level PressureIn, Max VisibilityMiles, Mean VisibilityMiles, Min VisibilityMiles, Max Wind SpeedMPH, Mean Wind SpeedMPH, Max Gust SpeedMPH,PrecipitationIn, CloudCover, Events, WindDirDegrees
2012-10-1,72,63,53,53,50,47,83,66,49,29.97,29.87,29.79,10,10,10,18,8,28,0.00,0,,265
2012-10-2,69,64,58,63,59,53,100,81,61,30.04,30.01,29.97,10,6,2,12,4,15,0.64,8,Rain,48
2012-10-3,69,66,62,68,64,62,100,92,84,30.12,30.06,29.99,10,4,0,12,5,13,0.01,8,Fog-Rain,48
2012-10-4,69,67,65,67,66,66,100,95,90,30.14,30.09,30.03,10,3,0,12,3,13,0.45,8,Fog-Rain,68
2012-10-5,76,69,61,66,62,58,100,77,54,30.06,30.02,29.93,10,7,0,14,5,16,0.00,4,Fog,249
2012-10-6,78,65,52,64,57,44,93,75,57,29.98,29.86,29.75,10,8,2,24,7,31,0.00,1,,251
2012-10-7,55,50,45,47,43,37,93,74,54,30.11,30.06,29.99,10,10,7,12,3,15,0.15,5,Rain,323
2012-10-8,57,49,41,46,43,40,96,76,55,30.29,30.22,30.10,10,10,10,10,4,15,0.00,3,,329
2012-10-9,59,55,51,51,48,43,83,77,71,30.25,30.18,30.11,10,10,10,16,11,21,0.01,7,Rain,36
2012-10-10,68,60,52,61,52,37,100,76,51,30.10,29.93,29.78,10,7,2,18,9,25,0.22,6,Rain,17
2012-10-11,61,54,47,40,36,30,71,52,32,30.17,30.10,29.94,10,10,10,20,9,25,0.00,0,,271
2012-10-12,56,47,38,42,35,25,77,58,39,30.42,30.18,30.05,10,10,10,20,9,28,T,2,Rain,303
2012-10-13,56,45,33,42,28,20,75,52,29,30.52,30.43,30.31,10,10,10,21,8,24,0.00,0,,237
2012-10-14,69,63,56,59,52,45,84,72,59,30.27,30.12,29.96,10,10,10,26,16,35,T,4,,219
2012-10-15,73,67,61,64,61,58,93,81,68,29.94,29.74,29.64,10,9,2,21,12,28,0.38,6,Rain,208
2012-10-16,62,54,46,58,42,35,93,66,39,29.91,29.75,29.63,10,10,10,23,10,32,T,2,Rain,314
2012-10-17,61,50,39,46,40,36,86,69,51,30.02,29.97,29.92,10,10,10,12,4,14,0.00,0,,255
2012-10-18,67,56,45,56,49,43,93,75,56,30.06,30.03,29.99,10,9,7,17,7,21,0.00,3,,78
2012-10-19,68,65,62,66,63,55,100,92,84,29.98,29.83,29.69,10,7,2,18,10,26,0.81,8,Rain,141
2012-10-20,72,63,53,65,58,42,100,76,51,29.81,29.70,29.65,10,8,0,17,8,23,0.00,3,Fog,227
2012-10-21,68,59,49,43,41,37,74,54,34,29.99,29.92,29.83,10,10,10,20,7,24,0.00,1,,270
2012-10-22,69,57,45,48,42,39,82,58,33,30.07,30.02,29.97,10,10,10,17,7,23,0.00,0,,280
2012-10-23,65,57,48,54,48,42,93,71,48,30.13,30.09,30.06,10,10,6,8,3,10,0.10,5,Rain,328
2012-10-24,58,56,54,54,50,45,100,84,67,30.21,30.15,30.11,10,9,4,10,6,13,0.03,8,Rain,30
2012-10-25,61,58,54,52,48,45,77,71,64,30.29,30.25,30.22,10,10,10,9,5,13,0.00,8,,67
2012-10-26,67,62,56,58,55,52,86,75,63,30.24,30.19,30.13,10,10,10,7,2,9,0.00,6,,105
2012-10-27,64,61,58,58,55,53,90,81,72,30.12,30.01,29.94,10,10,9,12,7,15,0.00,5,,66
2012-10-28,60,57,53,51,48,43,80,71,61,29.93,29.82,29.68,10,10,7,25,15,33,T,7,Rain,38
2012-10-29,66,59,52,61,54,48,100,84,67,29.67,29.15,28.71,10,7,1,59,30,76,0.39,8,Rain,47
2012-10-30,61,58,55,,,,,,,,,,,,,32,17,43,0.04,,,-1
2012-10-31,55,52,48,,,,,,,,,,,,,18,9,23,0.01,,,